Villa Park, California
Current Conditions -  °F | °C
As of 4:19 AM on Friday 31 Oct 2014 (Local Time) from KSNA Reporting Station
Overcast Overcast  
Wind Chill: 64°   Ceiling: 1500
Heat Index: 64°   Visibility: 10mi
Dew Point: 59°   Wind: 0mph
Humidity: 83%   Direction: NA
Pressure: 29.94"   Gusts: NA
Location:  33.81°N, 117.82°W
Report Text: KSNA 311119Z AUTO 00000KT 10SM BKN015 OVC023 18/15 A2994 RMK AO2 TSNO $
Loading
Personal Weather Stations






























Interactive Weather Map
Tropical Storm Tracking
New forecast layout! Learn more

10-Day Weather Forecast

Advertisements
Track Severe Weather on mobile